createdAt,value
2022-10-13T00:01:57.275Z,95.20
2022-10-13T00:04:58.804Z,95.50
2022-10-13T00:08:00.581Z,95.40
2022-10-13T00:11:02.277Z,95.40
2022-10-13T00:14:04.586Z,95.30
2022-10-13T00:17:06.359Z,95.90
2022-10-13T00:20:08.772Z,95.50
2022-10-13T00:23:10.749Z,95.20
2022-10-13T00:26:14.712Z,95.50
2022-10-13T00:29:16.221Z,95.70
2022-10-13T00:32:18.807Z,95.50
2022-10-13T00:35:20.556Z,95.60
2022-10-13T00:38:23.212Z,95.60
2022-10-13T00:41:24.918Z,95.70
2022-10-13T00:44:59.189Z,95.60
2022-10-13T00:48:01.886Z,95.10
2022-10-13T00:51:04.285Z,95.50
2022-10-13T00:54:06.924Z,95.70
2022-10-13T00:57:09.944Z,95.60
2022-10-13T01:00:12.453Z,95.60
2022-10-13T01:03:14.511Z,95.20
2022-10-13T01:06:22.521Z,95.90
2022-10-13T01:09:25.108Z,95.50
2022-10-13T01:12:41.557Z,95.50
2022-10-13T01:15:58.124Z,95.50
2022-10-13T01:19:27.400Z,94.90
2022-10-13T01:23:13.912Z,94.90
2022-10-13T01:26:34.298Z,94.80
2022-10-13T01:30:05.313Z,95.60
2022-10-13T01:33:25.973Z,95.90
2022-10-13T01:37:06.084Z,94.70
2022-10-13T01:40:20.189Z,94.80
2022-10-13T01:43:30.315Z,95.70
2022-10-13T01:46:37.600Z,95.70
2022-10-13T01:49:39.941Z,95.50
2022-10-13T01:52:42.710Z,95.50
2022-10-13T01:55:59.672Z,95.60
2022-10-13T01:59:06.157Z,95.00
2022-10-13T02:02:19.132Z,95.60
2022-10-13T02:05:52.486Z,95.00
2022-10-13T02:09:10.149Z,95.20
2022-10-13T02:12:43.630Z,95.10
2022-10-13T02:15:48.298Z,94.90
2022-10-13T02:18:51.017Z,95.70
2022-10-13T02:21:53.274Z,95.50
2022-10-13T02:24:55.305Z,95.70
2022-10-13T02:27:59.667Z,95.70
2022-10-13T02:31:01.668Z,96.20
2022-10-13T02:34:03.649Z,95.60
2022-10-13T02:37:05.197Z,95.70
2022-10-13T02:40:07.294Z,95.70
2022-10-13T02:43:09.037Z,95.50
2022-10-13T02:46:10.566Z,95.70
2022-10-13T02:49:12.338Z,95.50
2022-10-13T02:52:14.660Z,95.90
2022-10-13T02:55:16.537Z,95.60
2022-10-13T02:58:18.055Z,95.70
2022-10-13T03:01:19.676Z,95.60
2022-10-13T03:04:21.187Z,95.50
2022-10-13T03:07:22.840Z,95.60
2022-10-13T03:10:24.597Z,95.50
2022-10-13T03:13:26.513Z,95.70
2022-10-13T03:16:28.058Z,98.00
2022-10-13T03:19:29.661Z,95.70
2022-10-13T03:22:32.896Z,95.80
2022-10-13T03:25:35.691Z,95.90
2022-10-13T03:28:37.342Z,95.70
2022-10-13T03:31:39.372Z,95.60
2022-10-13T03:34:41.081Z,95.80
2022-10-13T03:37:42.649Z,95.80
2022-10-13T03:40:44.203Z,95.50
2022-10-13T03:43:45.761Z,95.60
2022-10-13T03:46:47.307Z,95.70
2022-10-13T03:49:48.895Z,95.70
2022-10-13T03:52:50.440Z,95.70
2022-10-13T03:55:56.065Z,95.60
2022-10-13T03:59:00.085Z,95.90
2022-10-13T04:02:01.715Z,95.80
2022-10-13T04:05:03.417Z,95.80
2022-10-13T04:08:05.423Z,95.70
2022-10-13T04:11:14.033Z,95.70
2022-10-13T04:14:15.594Z,95.70
2022-10-13T04:17:17.219Z,95.60
2022-10-13T04:20:18.999Z,95.60
2022-10-13T04:23:20.585Z,95.80
2022-10-13T04:26:22.933Z,95.60
2022-10-13T04:29:24.505Z,95.60
2022-10-13T04:32:26.019Z,95.70
2022-10-13T04:35:27.637Z,95.60
2022-10-13T04:38:29.164Z,95.00
2022-10-13T04:41:30.698Z,95.60
2022-10-13T04:44:32.259Z,95.60
2022-10-13T04:47:37.213Z,95.60
2022-10-13T04:50:38.822Z,95.70
2022-10-13T04:53:40.972Z,95.80
2022-10-13T04:56:45.433Z,95.60
2022-10-13T04:59:47.108Z,95.70
2022-10-13T05:02:48.691Z,95.90
2022-10-13T05:05:50.764Z,95.60
2022-10-13T05:08:52.673Z,95.60
2022-10-13T05:11:57.272Z,95.70
2022-10-13T05:14:58.864Z,95.70
2022-10-13T05:18:00.520Z,95.60
2022-10-13T05:21:15.323Z,95.70
2022-10-13T05:24:16.969Z,95.10
2022-10-13T05:27:18.508Z,95.30
2022-10-13T05:30:20.220Z,95.80
2022-10-13T05:33:21.803Z,95.80
2022-10-13T05:36:32.945Z,95.80
2022-10-13T05:39:34.497Z,95.80
2022-10-13T05:42:36.951Z,95.70
2022-10-13T05:45:39.300Z,95.90
2022-10-13T05:48:40.883Z,95.70
2022-10-13T05:51:50.499Z,95.70
2022-10-13T05:54:56.462Z,95.00
2022-10-13T05:57:57.983Z,95.80
2022-10-13T06:00:59.729Z,95.70
2022-10-13T06:04:07.652Z,95.60
2022-10-13T06:07:10.032Z,95.80
2022-10-13T06:10:12.287Z,95.90
2022-10-13T06:13:13.797Z,95.80
2022-10-13T06:16:15.369Z,95.80
2022-10-13T06:19:17.031Z,95.70
2022-10-13T06:22:18.933Z,95.60
2022-10-13T06:25:20.712Z,95.70
2022-10-13T06:28:22.457Z,95.60
2022-10-13T06:31:24.050Z,95.60
2022-10-13T06:34:25.553Z,95.60
2022-10-13T06:37:27.619Z,95.60
2022-10-13T06:40:29.284Z,95.70
2022-10-13T06:43:39.637Z,95.60
2022-10-13T06:46:41.866Z,95.70
2022-10-13T06:49:43.447Z,95.60
2022-10-13T06:52:45.050Z,95.60
2022-10-13T06:55:51.562Z,95.40
2022-10-13T06:58:53.941Z,95.50
2022-10-13T07:01:55.500Z,95.60
2022-10-13T07:04:57.089Z,95.60
2022-10-13T07:07:58.928Z,95.70
2022-10-13T07:11:06.415Z,95.50
2022-10-13T07:14:07.906Z,95.70
2022-10-13T07:17:09.548Z,95.70
2022-10-13T07:20:12.883Z,95.50
2022-10-13T07:23:14.565Z,95.50
2022-10-13T07:26:16.361Z,95.50
2022-10-13T07:29:18.173Z,95.50
2022-10-13T07:32:19.744Z,95.40
2022-10-13T07:35:24.761Z,95.30
2022-10-13T07:38:29.756Z,95.30
2022-10-13T07:41:31.389Z,95.40
2022-10-13T07:44:32.973Z,95.40
2022-10-13T07:47:34.808Z,95.40
2022-10-13T07:50:36.900Z,96.10
2022-10-13T07:53:39.354Z,95.20
2022-10-13T07:56:40.860Z,95.10
2022-10-13T07:59:42.443Z,94.90
2022-10-13T08:02:44.018Z,94.90
2022-10-13T08:05:45.599Z,94.70
2022-10-13T08:08:47.295Z,94.70
2022-10-13T08:11:48.881Z,94.70
2022-10-13T08:14:51.099Z,94.70
2022-10-13T08:17:52.701Z,94.50
2022-10-13T08:21:04.245Z,94.50
2022-10-13T08:24:16.441Z,94.40
2022-10-13T08:27:21.941Z,94.40
2022-10-13T08:30:24.535Z,94.30
2022-10-13T08:33:27.384Z,94.40
2022-10-13T08:36:28.969Z,94.30
2022-10-13T08:39:30.682Z,94.50
2022-10-13T08:42:32.334Z,94.30
2022-10-13T08:45:42.434Z,95.30
2022-10-13T08:48:44.179Z,94.80
2022-10-13T08:51:45.740Z,94.40
2022-10-13T08:54:47.721Z,94.40
2022-10-13T08:57:49.499Z,97.00
2022-10-13T09:01:06.315Z,94.10
2022-10-13T09:04:10.988Z,93.50
2022-10-13T09:07:17.673Z,94.20
2022-10-13T09:10:19.606Z,94.10
2022-10-13T09:13:21.702Z,93.90
2022-10-13T09:16:33.422Z,93.70
2022-10-13T09:19:36.327Z,92.80
2022-10-13T09:22:39.696Z,93.50
2022-10-13T09:25:43.977Z,93.60
2022-10-13T09:28:45.792Z,93.60
2022-10-13T09:31:47.603Z,93.30
2022-10-13T09:34:50.541Z,93.30
2022-10-13T09:38:05.812Z,93.30
2022-10-13T09:41:10.383Z,93.10
2022-10-13T09:44:22.138Z,93.20
2022-10-13T09:47:29.987Z,92.20
2022-10-13T09:50:35.075Z,92.60
2022-10-13T09:53:41.080Z,92.70
2022-10-13T09:56:48.780Z,92.60
2022-10-13T09:59:53.367Z,92.60
2022-10-13T10:03:17.582Z,92.60
2022-10-13T10:06:20.784Z,91.60
2022-10-13T10:09:45.532Z,92.40
2022-10-13T10:12:47.241Z,92.60
2022-10-13T10:15:55.807Z,92.40
2022-10-13T10:19:04.751Z,92.30
2022-10-13T10:22:30.283Z,92.40
2022-10-13T10:25:40.494Z,91.70
2022-10-13T10:29:15.220Z,91.60
2022-10-13T10:32:22.279Z,92.60
2022-10-13T10:35:51.369Z,92.00
2022-10-13T10:39:21.568Z,91.30
2022-10-13T10:42:56.993Z,91.60
2022-10-13T10:46:00.164Z,90.80
2022-10-13T10:49:19.741Z,91.50
2022-10-13T10:52:28.870Z,90.60
2022-10-13T10:55:52.691Z,91.50
2022-10-13T10:59:18.563Z,90.30
2022-10-13T11:03:14.439Z,90.70
2022-10-13T11:06:24.244Z,90.70
2022-10-13T11:09:41.102Z,91.10
2022-10-13T11:12:51.589Z,91.50
2022-10-13T11:15:53.617Z,91.50
2022-10-13T11:18:55.916Z,92.40
2022-10-13T11:21:57.817Z,92.40
2022-10-13T11:25:39.841Z,92.10
2022-10-13T11:28:41.568Z,91.30
2022-10-13T11:31:54.476Z,92.00
2022-10-13T11:35:05.465Z,91.90
2022-10-13T11:38:29.247Z,91.80
2022-10-13T11:41:39.998Z,91.80
2022-10-13T11:45:02.714Z,91.80
2022-10-13T11:48:11.296Z,92.00
2022-10-13T11:51:54.444Z,91.80
2022-10-13T11:55:15.707Z,91.30
2022-10-13T11:58:24.633Z,91.30
2022-10-13T12:01:26.138Z,92.00
2022-10-13T12:04:28.556Z,92.10
2022-10-13T12:07:35.914Z,92.00
2022-10-13T12:10:38.021Z,92.20
2022-10-13T12:13:39.526Z,92.30
2022-10-13T12:16:59.103Z,92.40
2022-10-13T12:20:04.449Z,91.50
2022-10-13T12:23:16.950Z,92.40
2022-10-13T12:26:25.683Z,92.60
2022-10-13T12:29:32.117Z,92.70
2022-10-13T12:32:35.935Z,92.90
2022-10-13T12:35:37.455Z,93.00
2022-10-13T12:38:41.923Z,93.10
2022-10-13T12:41:46.477Z,93.20
2022-10-13T12:44:48.146Z,93.40
2022-10-13T12:47:52.692Z,93.50
2022-10-13T12:50:54.504Z,93.50
2022-10-13T12:53:56.509Z,93.50
2022-10-13T12:57:00.909Z,93.60
2022-10-13T13:00:20.412Z,93.60
2022-10-13T13:03:27.256Z,93.60
2022-10-13T13:06:32.677Z,93.60
2022-10-13T13:09:38.700Z,93.50
2022-10-13T13:12:40.632Z,93.40
2022-10-13T13:15:42.364Z,93.70
2022-10-13T13:18:46.641Z,93.30
2022-10-13T13:21:48.302Z,93.40
2022-10-13T13:24:51.048Z,93.50
2022-10-13T13:27:53.068Z,93.70
2022-10-13T13:30:54.649Z,93.60
2022-10-13T13:33:56.197Z,93.90
2022-10-13T13:36:57.913Z,93.70
2022-10-13T13:39:59.811Z,93.40
2022-10-13T13:43:01.495Z,93.30
2022-10-13T13:46:03.919Z,92.70
2022-10-13T13:49:06.236Z,92.50
2022-10-13T13:52:07.788Z,92.30
2022-10-13T13:55:09.674Z,92.20
2022-10-13T13:58:11.290Z,92.20
2022-10-13T14:01:14.111Z,92.00
2022-10-13T14:04:15.680Z,92.30
2022-10-13T14:07:17.777Z,92.50
2022-10-13T14:10:19.464Z,92.50
2022-10-13T14:13:21.022Z,92.30
2022-10-13T14:16:22.549Z,92.50
2022-10-13T14:19:24.136Z,92.60
2022-10-13T14:22:26.239Z,92.70
2022-10-13T14:25:28.043Z,92.90
2022-10-13T14:28:29.622Z,93.00
2022-10-13T14:31:32.685Z,93.20
2022-10-13T14:34:34.255Z,93.30
2022-10-13T14:37:37.191Z,93.30
2022-10-13T14:40:42.364Z,93.40
2022-10-13T14:43:44.073Z,93.50
2022-10-13T14:46:45.744Z,93.60
2022-10-13T14:49:47.292Z,93.90
2022-10-13T14:52:48.826Z,94.10
2022-10-13T14:55:50.377Z,93.80
2022-10-13T14:58:54.484Z,93.90
2022-10-13T15:01:56.011Z,94.00
2022-10-13T15:04:57.939Z,94.10
2022-10-13T15:07:59.552Z,94.10
2022-10-13T15:11:02.520Z,94.00
2022-10-13T15:14:04.482Z,94.20
2022-10-13T15:17:05.976Z,94.20
2022-10-13T15:20:08.281Z,94.30
2022-10-13T15:23:09.780Z,93.70
2022-10-13T15:26:12.952Z,94.30
2022-10-13T15:29:14.453Z,94.40
2022-10-13T15:32:18.523Z,94.30
2022-10-13T15:35:20.334Z,94.50
2022-10-13T15:38:22.612Z,94.40
2022-10-13T15:41:25.394Z,94.40
2022-10-13T15:44:27.680Z,94.60
2022-10-13T15:47:29.889Z,94.80
2022-10-13T15:50:31.799Z,94.40
2022-10-13T15:53:33.369Z,94.50
2022-10-13T15:56:34.927Z,94.40
2022-10-13T15:59:36.436Z,94.50
2022-10-13T16:02:38.265Z,94.60
2022-10-13T16:05:44.683Z,95.00
2022-10-13T16:08:46.175Z,94.70
2022-10-13T16:11:47.787Z,94.70
2022-10-13T16:14:49.316Z,94.90
2022-10-13T16:17:51.963Z,94.80
2022-10-13T16:20:53.458Z,94.80
2022-10-13T16:23:55.056Z,94.90
2022-10-13T16:26:56.591Z,95.20
2022-10-13T16:29:58.172Z,94.90
2022-10-13T16:32:59.683Z,94.90
2022-10-13T16:36:05.829Z,95.00
2022-10-13T16:39:07.467Z,94.80
2022-10-13T16:42:09.001Z,94.90
2022-10-13T16:45:10.776Z,95.20
2022-10-13T16:48:12.360Z,95.00
2022-10-13T16:51:22.816Z,95.00
2022-10-13T16:54:24.424Z,95.10
2022-10-13T16:57:26.047Z,94.90
2022-10-13T17:00:27.618Z,95.00
2022-10-13T17:03:29.403Z,95.30
2022-10-13T17:06:31.060Z,95.50
2022-10-13T17:09:32.646Z,95.60
2022-10-13T17:12:34.169Z,95.80
2022-10-13T17:15:35.719Z,96.00
2022-10-13T17:18:37.602Z,95.80
2022-10-13T17:21:39.176Z,96.00
2022-10-13T17:24:47.682Z,96.20
2022-10-13T17:27:49.182Z,96.70
2022-10-13T17:31:02.380Z,96.20
2022-10-13T17:34:03.988Z,96.50
2022-10-13T17:37:06.443Z,96.10
2022-10-13T17:40:08.420Z,96.30
2022-10-13T17:43:09.947Z,96.30
2022-10-13T17:46:37.877Z,96.40
2022-10-13T17:49:40.438Z,95.80
2022-10-13T17:52:41.956Z,96.60
2022-10-13T17:55:43.956Z,96.50
2022-10-13T17:59:13.763Z,97.00
2022-10-13T18:02:38.119Z,97.20
2022-10-13T18:05:41.952Z,97.10
2022-10-13T18:08:44.380Z,96.70
2022-10-13T18:11:50.762Z,96.50
2022-10-13T18:14:53.016Z,96.70
2022-10-13T18:17:54.757Z,96.60
2022-10-13T18:20:56.369Z,96.80
2022-10-13T18:24:04.046Z,96.60
2022-10-13T18:27:06.060Z,96.80
2022-10-13T18:30:09.810Z,96.90
2022-10-13T18:33:11.569Z,96.60
2022-10-13T18:36:28.298Z,96.60
2022-10-13T18:39:29.982Z,97.00
2022-10-13T18:42:31.709Z,96.80
2022-10-13T18:45:35.546Z,96.80
2022-10-13T18:48:37.118Z,96.90
2022-10-13T18:51:39.977Z,97.20
2022-10-13T18:54:41.487Z,97.00
2022-10-13T18:57:43.018Z,96.80
2022-10-13T19:00:50.003Z,96.90
2022-10-13T19:03:53.430Z,97.40
2022-10-13T19:06:55.121Z,97.20
2022-10-13T19:09:56.690Z,97.40
2022-10-13T19:12:58.295Z,97.10
2022-10-13T19:16:06.878Z,97.10
2022-10-13T19:19:09.447Z,96.60
2022-10-13T19:22:11.563Z,97.00
2022-10-13T19:25:13.144Z,97.20
2022-10-13T19:28:15.088Z,97.80
2022-10-13T19:31:22.734Z,97.20
2022-10-13T19:34:24.807Z,97.10
2022-10-13T19:37:29.169Z,98.10
2022-10-13T19:40:32.308Z,98.30
2022-10-13T19:43:34.403Z,98.10
2022-10-13T19:46:36.464Z,98.00
2022-10-13T19:49:38.118Z,97.80
2022-10-13T19:52:42.606Z,98.00
2022-10-13T19:55:47.532Z,97.40
2022-10-13T19:58:49.343Z,97.40
2022-10-13T20:02:03.932Z,97.30
2022-10-13T20:05:06.176Z,97.80
2022-10-13T20:08:10.665Z,97.30
2022-10-13T20:11:22.224Z,97.90
2022-10-13T20:14:25.148Z,98.20
2022-10-13T20:17:42.503Z,97.60
2022-10-13T20:20:44.726Z,97.90
2022-10-13T20:23:46.944Z,98.60
2022-10-13T20:26:51.739Z,98.80
2022-10-13T20:29:53.382Z,99.10
2022-10-13T20:32:59.655Z,98.30
2022-10-13T20:36:05.052Z,99.00
2022-10-13T20:39:07.589Z,98.00
2022-10-13T20:42:09.191Z,97.80
2022-10-13T20:45:10.727Z,97.80
2022-10-13T20:48:12.234Z,97.80
2022-10-13T20:51:15.578Z,97.80
2022-10-13T20:54:17.148Z,97.90
2022-10-13T20:57:18.989Z,97.90
2022-10-13T21:00:20.950Z,97.90
2022-10-13T21:03:23.648Z,97.80
2022-10-13T21:06:26.575Z,98.00
2022-10-13T21:09:28.165Z,98.00
2022-10-13T21:12:29.724Z,97.90
2022-10-13T21:15:31.323Z,98.00
2022-10-13T21:18:33.087Z,98.00
2022-10-13T21:21:35.832Z,98.10
2022-10-13T21:24:37.406Z,98.10
2022-10-13T21:27:38.953Z,97.80
2022-10-13T21:30:40.558Z,98.20
2022-10-13T21:33:42.850Z,98.30
2022-10-13T21:36:45.377Z,98.20
2022-10-13T21:39:48.241Z,98.10
2022-10-13T21:42:49.801Z,98.10
2022-10-13T21:45:51.311Z,97.90
2022-10-13T21:49:00.788Z,98.10
2022-10-13T21:52:02.328Z,98.20
2022-10-13T21:55:04.155Z,98.10
2022-10-13T21:58:05.714Z,97.90
2022-10-13T22:01:08.045Z,98.00
2022-10-13T22:04:13.560Z,98.00
2022-10-13T22:07:15.101Z,98.00
2022-10-13T22:10:16.977Z,98.10
2022-10-13T22:13:18.549Z,97.90
2022-10-13T22:16:22.509Z,98.00
2022-10-13T22:19:24.415Z,98.10
2022-10-13T22:22:30.765Z,98.00
2022-10-13T22:25:32.518Z,98.10
2022-10-13T22:28:37.236Z,97.90
2022-10-13T22:31:39.209Z,98.00
2022-10-13T22:34:40.831Z,98.10
2022-10-13T22:37:42.342Z,98.10
2022-10-13T22:40:43.884Z,98.00
2022-10-13T22:43:49.218Z,98.10
2022-10-13T22:46:50.746Z,98.10
2022-10-13T22:49:52.319Z,98.00
2022-10-13T22:52:53.833Z,98.10
2022-10-13T22:55:55.356Z,98.20
2022-10-13T22:59:07.237Z,98.20
2022-10-13T23:02:08.803Z,98.20
2022-10-13T23:05:10.390Z,98.10
2022-10-13T23:08:12.020Z,98.10
2022-10-13T23:11:13.631Z,98.10
2022-10-13T23:14:15.232Z,98.10
2022-10-13T23:17:16.856Z,98.20
2022-10-13T23:20:18.553Z,98.10
2022-10-13T23:23:20.206Z,98.40
2022-10-13T23:26:21.796Z,99.00
2022-10-13T23:29:23.421Z,98.20
2022-10-13T23:32:25.131Z,98.20
2022-10-13T23:35:26.650Z,98.40
2022-10-13T23:38:30.267Z,98.30
2022-10-13T23:41:32.903Z,98.30
2022-10-13T23:44:34.984Z,98.20
2022-10-13T23:47:36.648Z,98.40
2022-10-13T23:50:38.193Z,98.30
2022-10-13T23:53:40.861Z,98.50
2022-10-13T23:56:42.462Z,98.40
2022-10-13T23:59:44.039Z,98.40
